Accueil
Images satellite Prévisions 15 joursClimatMétéo marine Cyclones Foudre AéroportsFAQ Actualités A propos
Météo : Europe Afrique Amérique du Nord Amérique du Sud Asie Australie-Océanie Autres
Langues Contact

Biarritz, France

Anglet

latitude: 43-28N, longitude: 001-32W, altitude: 75 m


METAR: LFBZ 230600Z VRB03KT CAVOK 06/05 Q1026 NOSIG
TAF: LFBZ 230500Z 2306/2406 11006KT CAVOK

Heure: 08:34 (06:34 UTC)

Observation

Le bulletin a été fait il y a 34 minutes, à 06:00 UTC
Vent 3 kt de direction variable
Température 6°C
Humidité 93%
Pression 1026 hPa
Visibilité 10 km ou plus
pas de nuages en-dessous de 1500 mètres et pas de cumulonimbus.

Changer d'unités

Prévision

Le bulletin a été fait il y a 1 heure et 34 minutes, à 05:00 UTC
Prévision valable du 23 à 06 UTC au 24 à 06 UTC
Vent 6 kt de est/sud-est
Visibilité 10 km ou plus
pas de nuages en-dessous de 1500 mètres et pas de cumulonimbus.
Les informations qui figurent sur ce site font l'objet d'une clause de non-responsabilité
Météo : Europe Afrique Amérique du Nord Amérique du Sud Asie Australie-Océanie Autres
Images satellite Prévisions 15 joursClimatMétéo marine Cyclones Foudre AéroportsFAQ Langues Contact Actualités A propos